Terminal Aerodrome Forecast
Issued by NWS

Home | Current Version | Previous Version | Text Only | Print | Product List | Glossary On
Versions: 1 2 3 4 5 6 7 8 9 10 11 12 13
000
FTUS41 KBTV 240522
TAFPBG
TAF
KPBG 240522Z 2406/2506 20004KT P6SM FEW250
     FM241500 15010KT P6SM SKC
     FM250000 17002KT P6SM SCT250=

USA.gov is the U.S. government's official web portal to all federal, state and local government web resources and services.